Time;durP1;ratioP1;P1;durP2;ratioP2;P2;SDS_P1;SDS_P2;PMS_P1;PMS_P2;Temp;Humidity;BMP_temperature;BMP_pressure;BME280_temperature;BME280_humidity;BME280_pressure;Samples;Min_cycle;Max_cycle;Signal;HPM_P1;HPM_P2
2023/09/15 00:01:11;;;;;;;7.13;4.75;;;;;;;8.67;100.00;99053.81;6109952;19;20012;-74
2023/09/15 00:03:11;;;;;;;8.60;5.10;;;;;;;8.65;100.00;99053.38;6109776;19;20006;-74
2023/09/15 00:05:12;;;;;;;7.38;4.47;;;;;;;8.64;100.00;99058.09;6109319;19;20716;-74
2023/09/15 00:07:14;;;;;;;7.32;3.95;;;;;;;8.64;100.00;99054.53;6108596;19;20545;-74
2023/09/15 00:09:15;;;;;;;5.50;3.90;;;;;;;8.61;100.00;99047.75;6108353;19;20284;-74
2023/09/15 00:11:19;;;;;;;6.35;4.35;;;;;;;8.60;100.00;99054.41;6108368;19;20157;-74
2023/09/15 00:13:19;;;;;;;6.18;4.20;;;;;;;8.58;100.00;99053.16;6108516;19;20462;-74
2023/09/15 00:15:20;;;;;;;5.20;4.05;;;;;;;8.54;100.00;99044.00;6107510;19;20011;-74
2023/09/15 00:17:20;;;;;;;5.53;4.70;;;;;;;8.50;100.00;99048.59;6108657;19;20010;-74
2023/09/15 00:19:22;;;;;;;7.15;3.92;;;;;;;8.48;100.00;99042.63;6107314;19;20003;-74
2023/09/15 00:21:22;;;;;;;5.68;4.28;;;;;;;8.43;100.00;99044.47;6109432;19;20006;-74
2023/09/15 00:23:22;;;;;;;7.50;4.43;;;;;;;8.42;100.00;99051.16;6107968;19;20017;-74
2023/09/15 00:25:27;;;;;;;5.95;4.03;;;;;;;8.40;100.00;99047.13;6108049;19;20006;-74
2023/09/15 00:27:28;;;;;;;6.28;4.03;;;;;;;8.47;100.00;99046.56;6106516;19;20021;-74
2023/09/15 00:29:28;;;;;;;5.63;3.92;;;;;;;8.43;100.00;99041.72;6105508;19;20351;-74
2023/09/15 00:31:29;;;;;;;9.75;4.38;;;;;;;8.42;100.00;99050.34;6108465;19;20006;-74
2023/09/15 00:33:29;;;;;;;7.25;4.32;;;;;;;8.44;100.00;99046.09;6109007;19;20023;-74
2023/09/15 00:35:30;;;;;;;7.57;4.60;;;;;;;8.42;100.00;99040.13;6107518;19;20015;-74
2023/09/15 00:37:30;;;;;;;4.97;3.72;;;;;;;8.41;100.00;99037.72;6107608;19;20002;-74
2023/09/15 00:39:31;;;;;;;6.68;4.35;;;;;;;8.38;100.00;99036.47;6107494;19;20641;-74
2023/09/15 00:41:31;;;;;;;7.65;4.78;;;;;;;8.35;100.00;99045.41;6106344;19;20010;-74
2023/09/15 00:43:31;;;;;;;6.78;4.30;;;;;;;8.28;100.00;99045.22;6107752;19;20388;-74
2023/09/15 00:45:32;;;;;;;5.22;4.20;;;;;;;8.25;100.00;99047.84;6108338;19;20006;-74
2023/09/15 00:47:34;;;;;;;6.82;4.65;;;;;;;8.18;100.00;99035.44;6108632;19;20015;-74
2023/09/15 00:49:34;;;;;;;5.80;4.40;;;;;;;8.13;100.00;99043.16;6105289;19;20458;-74
2023/09/15 00:51:35;;;;;;;6.03;3.90;;;;;;;8.12;100.00;99038.81;6108458;19;20006;-74
2023/09/15 00:53:38;;;;;;;5.35;4.53;;;;;;;8.08;100.00;99038.69;6111281;19;20443;-74
2023/09/15 00:55:41;;;;;;;5.72;3.90;;;;;;;8.09;100.00;99033.97;6109796;19;20007;-73
2023/09/15 00:57:41;;;;;;;7.65;4.60;;;;;;;8.02;100.00;99033.75;6108825;19;20002;-74
2023/09/15 00:59:42;;;;;;;9.80;4.57;;;;;;;8.00;100.00;99036.06;6108121;19;20013;-74
2023/09/15 01:01:47;;;;;;;5.85;4.28;;;;;;;7.98;100.00;99032.88;6108966;19;20352;-74
2023/09/15 01:03:48;;;;;;;6.60;4.63;;;;;;;7.97;100.00;99034.81;6108029;19;20332;-73
2023/09/15 01:05:48;;;;;;;9.93;5.90;;;;;;;7.98;100.00;99033.66;6107797;19;20066;-74
2023/09/15 01:07:53;;;;;;;7.80;5.25;;;;;;;7.98;100.00;99022.63;6109313;19;20040;-74
2023/09/15 01:09:53;;;;;;;6.53;4.85;;;;;;;8.00;100.00;99022.28;6109347;19;20029;-74
2023/09/15 01:11:53;;;;;;;7.30;5.32;;;;;;;7.98;100.00;99021.84;6109207;19;20352;-73
2023/09/15 01:13:54;;;;;;;8.43;5.80;;;;;;;8.00;100.00;99027.81;6108344;19;20014;-74
2023/09/15 01:16:05;;;;;;;8.52;5.10;;;;;;;7.97;100.00;99029.31;6108832;19;20027;-74
2023/09/15 01:18:24;;;;;;;9.75;5.82;;;;;;;7.96;100.00;99027.72;6107073;19;20010;-74
2023/09/15 01:20:52;;;;;;;7.35;5.25;;;;;;;7.88;100.00;99025.88;6108150;19;20008;-74
2023/09/15 01:23:25;;;;;;;8.40;5.45;;;;;;;7.85;100.00;99024.59;6110798;19;20006;-74
2023/09/15 01:25:33;;;;;;;6.78;5.22;;;;;;;7.90;100.00;99020.81;6107249;19;20010;-74
2023/09/15 01:28:03;;;;;;;7.65;4.70;;;;;;;7.91;100.00;99024.38;6107022;19;20011;-74
2023/09/15 01:30:05;;;;;;;6.15;4.97;;;;;;;7.90;100.00;99012.56;6107961;19;20013;-74
2023/09/15 01:32:08;;;;;;;7.47;5.00;;;;;;;7.89;100.00;99017.25;6107198;19;20023;-74
2023/09/15 01:34:13;;;;;;;6.30;5.15;;;;;;;7.88;100.00;99007.41;6107619;19;20006;-74
2023/09/15 01:36:13;;;;;;;9.18;5.57;;;;;;;7.82;100.00;99019.78;6108533;19;20018;-74
2023/09/15 01:38:14;;;;;;;7.25;5.75;;;;;;;7.75;100.00;99003.03;6107534;19;20014;-73
2023/09/15 01:40:14;;;;;;;7.22;5.15;;;;;;;7.76;100.00;99010.16;6108666;19;20338;-74
2023/09/15 01:42:15;;;;;;;6.53;5.07;;;;;;;7.71;100.00;98998.59;6108290;19;20742;-74
2023/09/15 01:44:15;;;;;;;8.52;5.72;;;;;;;7.67;100.00;99006.72;6108862;19;20399;-73
2023/09/15 01:46:15;;;;;;;7.85;5.30;;;;;;;7.62;100.00;99003.44;6107251;19;20006;-73
2023/09/15 01:48:17;;;;;;;8.10;4.50;;;;;;;7.59;100.00;99002.94;6106511;19;20017;-73
2023/09/15 01:50:18;;;;;;;7.07;4.88;;;;;;;7.57;100.00;98993.44;6108648;19;20003;-74
2023/09/15 01:52:22;;;;;;;5.95;4.90;;;;;;;7.55;100.00;99001.25;6109253;19;20094;-74
2023/09/15 01:54:22;;;;;;;6.47;5.22;;;;;;;7.50;100.00;98998.72;6109620;19;20513;-73
2023/09/15 01:56:27;;;;;;;6.55;5.10;;;;;;;7.51;100.00;99000.31;6109077;19;20040;-74
2023/09/15 01:58:27;;;;;;;6.40;4.40;;;;;;;7.52;100.00;98999.97;6107381;19;20033;-73
2023/09/15 02:00:36;;;;;;;6.95;4.43;;;;;;;7.53;100.00;99003.50;6108816;19;20010;-74
2023/09/15 02:02:36;;;;;;;7.65;4.95;;;;;;;7.50;100.00;99002.25;6108213;19;20007;-74
2023/09/15 02:04:38;;;;;;;5.43;4.70;;;;;;;7.48;100.00;99004.56;6105176;19;20044;-73
2023/09/15 02:06:38;;;;;;;7.18;5.00;;;;;;;7.48;100.00;99007.31;6109403;19;20491;-73
2023/09/15 02:08:38;;;;;;;7.00;4.90;;;;;;;7.48;100.00;99006.50;6107504;19;20011;-74
2023/09/15 02:10:39;;;;;;;7.15;4.90;;;;;;;7.45;100.00;99007.22;6108834;19;20014;-73
2023/09/15 02:12:39;;;;;;;6.93;4.97;;;;;;;7.42;100.00;99002.38;6107816;19;20014;-73
2023/09/15 02:14:39;;;;;;;10.90;5.32;;;;;;;7.36;100.00;99007.31;6108766;19;20003;-73
2023/09/15 02:16:40;;;;;;;6.78;4.55;;;;;;;7.32;100.00;99003.66;6107429;19;20482;-73
2023/09/15 02:18:40;;;;;;;5.45;4.47;;;;;;;7.28;100.00;99002.72;6106087;19;20002;-74
2023/09/15 02:20:40;;;;;;;5.95;4.63;;;;;;;7.29;100.00;99007.91;6106524;19;20007;-74
2023/09/15 02:22:42;;;;;;;7.15;4.80;;;;;;;7.29;100.00;99010.66;6108169;19;20003;-73
2023/09/15 02:24:42;;;;;;;6.22;4.97;;;;;;;7.32;100.00;99000.88;6107975;19;20135;-73
2023/09/15 02:26:44;;;;;;;6.30;4.80;;;;;;;7.35;100.00;99005.69;6108267;19;20022;-74
2023/09/15 02:28:44;;;;;;;6.05;4.65;;;;;;;7.34;100.00;99009.59;6103813;19;20517;-73
2023/09/15 02:30:46;;;;;;;6.93;4.68;;;;;;;7.29;100.00;99005.16;6106273;19;20003;-73
2023/09/15 02:32:46;;;;;;;7.57;5.65;;;;;;;7.26;100.00;99008.56;6107589;19;20459;-74
2023/09/15 02:34:47;;;;;;;6.82;4.88;;;;;;;7.26;100.00;99002.25;6106561;19;20010;-73
2023/09/15 02:36:47;;;;;;;5.10;4.38;;;;;;;7.26;100.00;98996.75;6109240;19;20007;-73
2023/09/15 02:38:47;;;;;;;5.78;4.15;;;;;;;7.25;100.00;98997.91;6106123;19;20007;-73
2023/09/15 02:40:48;;;;;;;5.63;4.05;;;;;;;7.28;100.00;98995.28;6108191;19;20003;-74
2023/09/15 02:42:48;;;;;;;6.88;4.18;;;;;;;7.30;100.00;98987.47;6107499;19;20335;-73
2023/09/15 02:44:48;;;;;;;7.13;4.65;;;;;;;7.28;100.00;98991.69;6106989;19;20474;-74
2023/09/15 02:46:49;;;;;;;5.85;4.65;;;;;;;7.23;100.00;98991.94;6107099;19;20003;-73
2023/09/15 02:48:49;;;;;;;7.10;4.97;;;;;;;7.20;100.00;98998.94;6106470;19;20026;-74
2023/09/15 02:50:49;;;;;;;6.10;4.40;;;;;;;7.13;100.00;98995.16;6107735;19;20030;-73
2023/09/15 02:52:50;;;;;;;6.00;4.88;;;;;;;7.03;100.00;98985.38;6107576;19;20082;-73
2023/09/15 02:54:50;;;;;;;5.90;5.03;;;;;;;6.97;100.00;98986.75;6107064;19;20482;-73
2023/09/15 02:56:50;;;;;;;6.38;4.78;;;;;;;6.98;100.00;98988.38;6108447;19;20007;-73
2023/09/15 02:58:51;;;;;;;6.18;4.72;;;;;;;7.00;100.00;98994.31;6104886;19;20458;-73
2023/09/15 03:00:52;;;;;;;6.95;4.93;;;;;;;6.95;100.00;98989.88;6106621;19;20031;-73
2023/09/15 03:02:52;;;;;;;7.90;5.13;;;;;;;6.91;100.00;98979.88;6108007;19;20074;-73
2023/09/15 03:04:53;;;;;;;6.03;4.93;;;;;;;6.94;100.00;98981.94;6105064;19;20353;-73
2023/09/15 03:06:53;;;;;;;5.80;4.80;;;;;;;6.94;100.00;98979.19;6107851;19;20034;-73
2023/09/15 03:08:53;;;;;;;7.75;5.47;;;;;;;6.85;100.00;98972.97;6106197;19;20002;-73
2023/09/15 03:10:54;;;;;;;6.75;5.30;;;;;;;6.82;100.00;98971.72;6107024;19;20021;-73
2023/09/15 03:12:54;;;;;;;5.93;4.55;;;;;;;6.78;100.00;98979.03;6106756;19;20014;-73
2023/09/15 03:14:54;;;;;;;7.03;5.38;;;;;;;6.73;100.00;98982.81;6109605;19;20007;-73
2023/09/15 03:16:55;;;;;;;9.00;6.18;;;;;;;6.68;100.00;98985.78;6112492;19;20430;-73
2023/09/15 03:18:55;;;;;;;7.63;6.00;;;;;;;6.65;100.00;98986.47;6109184;19;20006;-73
2023/09/15 03:20:55;;;;;;;8.48;5.82;;;;;;;6.63;100.00;98988.75;6110850;19;20011;-73
2023/09/15 03:22:56;;;;;;;6.45;5.15;;;;;;;6.60;100.00;98981.16;6112203;19;20078;-73
2023/09/15 03:24:56;;;;;;;6.97;5.38;;;;;;;6.57;100.00;98984.59;6112338;19;20040;-73
2023/09/15 03:26:57;;;;;;;9.95;5.05;;;;;;;6.58;100.00;98991.72;6112164;19;20034;-73
2023/09/15 03:28:57;;;;;;;7.70;5.63;;;;;;;6.54;100.00;98974.31;6107444;19;20003;-73
2023/09/15 03:30:57;;;;;;;10.50;5.60;;;;;;;6.52;100.00;98975.75;6112143;19;20006;-73
2023/09/15 03:32:58;;;;;;;9.90;5.82;;;;;;;6.50;100.00;98981.59;6110092;19;20014;-73
2023/09/15 03:34:59;;;;;;;7.75;5.95;;;;;;;6.48;100.00;98981.94;6110868;19;20029;-73
2023/09/15 03:37:01;;;;;;;8.20;6.43;;;;;;;6.47;100.00;98979.53;6112275;19;20007;-73
2023/09/15 03:39:03;;;;;;;9.55;5.88;;;;;;;6.45;100.00;98977.13;6110110;19;20025;-73
2023/09/15 03:41:04;;;;;;;8.35;6.30;;;;;;;6.46;100.00;98977.94;6111650;19;20006;-73
2023/09/15 03:43:05;;;;;;;8.30;6.05;;;;;;;6.45;100.00;98979.88;6110882;19;20009;-73
2023/09/15 03:45:07;;;;;;;8.85;6.53;;;;;;;6.46;100.00;98976.00;6112080;19;20002;-73
2023/09/15 03:47:09;;;;;;;8.43;6.30;;;;;;;6.52;100.00;98978.50;6109503;19;19999;-73
2023/09/15 03:49:09;;;;;;;8.82;6.22;;;;;;;6.56;100.00;98977.50;6108487;19;20085;-73
2023/09/15 03:51:09;;;;;;;10.40;6.90;;;;;;;6.57;100.00;98976.34;6104604;19;20051;-73
2023/09/15 03:53:10;;;;;;;9.65;6.47;;;;;;;6.57;100.00;98970.06;6109954;19;20027;-73
2023/09/15 03:55:10;;;;;;;7.85;6.32;;;;;;;6.57;100.00;98973.59;6111492;19;20021;-73
2023/09/15 03:57:10;;;;;;;7.57;6.10;;;;;;;6.56;100.00;98969.25;6110306;19;20684;-73
2023/09/15 03:59:11;;;;;;;8.15;5.38;;;;;;;6.59;100.00;98971.31;6109808;19;20454;-73
2023/09/15 04:01:11;;;;;;;8.82;5.97;;;;;;;6.58;100.00;98974.41;6110046;19;20069;-73
2023/09/15 04:03:11;;;;;;;7.15;5.22;;;;;;;6.53;100.00;98972.66;6110327;19;20011;-73
2023/09/15 04:05:12;;;;;;;10.38;6.07;;;;;;;6.48;100.00;98964.66;6110267;19;20093;-73
2023/09/15 04:07:12;;;;;;;7.55;5.78;;;;;;;6.40;100.00;98969.09;6108799;19;20566;-73
2023/09/15 04:09:13;;;;;;;10.07;6.22;;;;;;;6.37;100.00;98978.03;6108746;19;20006;-73
2023/09/15 04:11:13;;;;;;;7.82;5.63;;;;;;;6.34;100.00;98967.69;6110968;19;20002;-73
2023/09/15 04:13:13;;;;;;;7.47;5.47;;;;;;;6.33;100.00;98974.31;6109817;19;20003;-73
2023/09/15 04:15:15;;;;;;;6.30;4.97;;;;;;;6.34;100.00;98973.19;6110321;19;20019;-73
2023/09/15 04:17:15;;;;;;;5.45;4.18;;;;;;;6.31;100.00;98968.38;6110323;19;20028;-73
2023/09/15 04:19:15;;;;;;;9.43;5.03;;;;;;;6.33;100.00;98979.03;6107615;19;20334;-73
2023/09/15 04:21:16;;;;;;;7.18;4.82;;;;;;;6.31;100.00;98973.06;6110012;19;20014;-73
2023/09/15 04:23:16;;;;;;;7.05;4.82;;;;;;;6.31;100.00;98982.13;6109380;19;19998;-73
2023/09/15 04:25:17;;;;;;;6.95;5.20;;;;;;;6.31;100.00;98973.06;6109051;19;20027;-73
2023/09/15 04:27:17;;;;;;;8.95;5.63;;;;;;;6.33;100.00;98979.81;6104867;19;20009;-73
2023/09/15 04:29:17;;;;;;;8.32;4.82;;;;;;;6.32;100.00;98977.41;6107858;19;20015;-73
2023/09/15 04:31:18;;;;;;;5.65;4.45;;;;;;;6.29;100.00;98978.06;6109652;19;20027;-73
2023/09/15 04:33:18;;;;;;;8.60;5.25;;;;;;;6.33;100.00;98979.03;6109236;19;20482;-73
2023/09/15 04:35:18;;;;;;;6.32;4.47;;;;;;;6.37;100.00;98982.69;6109346;19;20014;-73
2023/09/15 04:37:20;;;;;;;7.50;5.03;;;;;;;6.42;100.00;98983.28;6108995;19;20635;-73
2023/09/15 04:39:21;;;;;;;6.93;4.85;;;;;;;6.41;100.00;98978.13;6108065;19;20388;-73
2023/09/15 04:41:22;;;;;;;6.18;5.00;;;;;;;6.33;100.00;98971.56;6108649;19;20019;-73
2023/09/15 04:43:22;;;;;;;10.80;4.90;;;;;;;6.33;100.00;98982.56;6105868;19;20374;-73
2023/09/15 04:45:22;;;;;;;5.97;4.40;;;;;;;6.29;100.00;98984.41;6107814;19;20010;-73
2023/09/15 04:47:35;;;;;;;5.72;4.40;;;;;;;6.30;100.00;98988.75;6107787;19;20015;-73
2023/09/15 04:49:35;;;;;;;8.98;5.45;;;;;;;6.28;100.00;98985.50;6106109;19;20014;-73
2023/09/15 04:51:36;;;;;;;6.28;4.50;;;;;;;6.25;100.00;98977.97;6105621;19;20017;-73
2023/09/15 04:53:36;;;;;;;7.00;4.57;;;;;;;6.28;100.00;98981.97;6104827;19;20023;-73
2023/09/15 04:55:36;;;;;;;9.50;4.55;;;;;;;6.25;100.00;98980.72;6102311;19;20631;-73
2023/09/15 04:57:37;;;;;;;9.35;5.40;;;;;;;6.23;100.00;98982.19;6105464;19;20013;-73
2023/09/15 04:59:37;;;;;;;9.82;5.05;;;;;;;6.19;100.00;98984.78;6104498;19;20014;-73
2023/09/15 05:01:39;;;;;;;10.02;6.53;;;;;;;6.14;100.00;98985.00;6098895;19;20406;-73
2023/09/15 05:03:39;;;;;;;13.33;6.17;;;;;;;6.11;100.00;98983.72;6103780;19;20020;-73
2023/09/15 05:05:40;;;;;;;11.95;6.10;;;;;;;6.16;100.00;98989.03;6103730;19;20462;-73
2023/09/15 05:07:40;;;;;;;8.75;5.10;;;;;;;6.19;100.00;98987.53;6104454;19;22223;-73
2023/09/15 05:09:40;;;;;;;10.70;5.38;;;;;;;6.22;100.00;98986.09;6106325;19;20243;-73
2023/09/15 05:11:41;;;;;;;8.15;5.07;;;;;;;6.28;100.00;98985.50;6107802;19;20002;-73
2023/09/15 05:13:41;;;;;;;13.07;6.43;;;;;;;6.30;100.00;98996.19;6106864;19;20002;-73
2023/09/15 05:15:41;;;;;;;11.07;6.20;;;;;;;6.27;100.00;98985.84;6107415;19;20011;-73
2023/09/15 05:17:42;;;;;;;7.75;5.10;;;;;;;6.24;100.00;98986.53;6106553;19;20006;-73
2023/09/15 05:19:42;;;;;;;14.07;6.25;;;;;;;6.25;100.00;98983.47;6105402;19;20007;-73
2023/09/15 05:21:43;;;;;;;9.90;5.75;;;;;;;6.26;100.00;98998.00;6108500;19;20014;-73
2023/09/15 05:23:43;;;;;;;9.48;5.72;;;;;;;6.27;100.00;98994.09;6105259;19;20002;-73
2023/09/15 05:25:43;;;;;;;9.25;6.38;;;;;;;6.26;100.00;98995.25;6105316;19;20018;-73
2023/09/15 05:27:44;;;;;;;12.13;6.30;;;;;;;6.24;100.00;98997.53;6106889;19;20006;-73
2023/09/15 05:29:44;;;;;;;10.43;6.05;;;;;;;6.23;100.00;98995.94;6105202;19;20006;-72
2023/09/15 05:31:45;;;;;;;6.47;5.50;;;;;;;6.22;100.00;99002.56;6106775;19;20010;-73
2023/09/15 05:33:45;;;;;;;8.43;5.72;;;;;;;6.24;100.00;98998.34;6106376;19;20007;-73
2023/09/15 05:35:45;;;;;;;11.02;7.38;;;;;;;6.26;100.00;98993.31;6107524;19;20066;-73
2023/09/15 05:37:46;;;;;;;11.35;6.30;;;;;;;6.25;100.00;98993.66;6106058;19;20017;-73
2023/09/15 05:39:46;;;;;;;9.98;6.65;;;;;;;6.34;100.00;98994.38;6103046;19;20002;-73
2023/09/15 05:41:46;;;;;;;13.73;6.90;;;;;;;6.36;100.00;99005.81;6106317;19;20030;-73
2023/09/15 05:43:47;;;;;;;15.40;8.02;;;;;;;6.39;100.00;99005.16;6106863;19;20007;-73
2023/09/15 05:45:47;;;;;;;17.85;8.20;;;;;;;6.38;100.00;98992.56;6105914;19;20072;-73
2023/09/15 05:47:47;;;;;;;13.68;6.85;;;;;;;6.41;100.00;98991.88;6105711;19;20824;-73
2023/09/15 05:49:48;;;;;;;20.05;7.40;;;;;;;6.44;100.00;99002.19;6102665;19;20501;-73
2023/09/15 05:51:48;;;;;;;11.30;7.03;;;;;;;6.47;100.00;98998.78;6108728;19;20066;-73
2023/09/15 05:53:49;;;;;;;17.50;7.30;;;;;;;6.51;100.00;98996.94;6107468;19;20011;-73
2023/09/15 05:55:49;;;;;;;11.02;6.32;;;;;;;6.54;100.00;98998.22;6106139;19;19999;-73
2023/09/15 05:57:49;;;;;;;15.35;7.80;;;;;;;6.59;100.00;98998.00;6107107;19;20043;-73
2023/09/15 05:59:50;;;;;;;14.50;8.52;;;;;;;6.65;100.00;98991.97;6107576;19;20055;-73
2023/09/15 06:01:50;;;;;;;12.45;7.97;;;;;;;6.71;100.00;98981.56;6107261;19;20035;-73
2023/09/15 06:03:50;;;;;;;11.55;8.18;;;;;;;6.77;100.00;98991.19;6108718;19;20033;-73
2023/09/15 06:05:51;;;;;;;15.40;8.45;;;;;;;6.86;100.00;98982.84;6104624;19;20002;-73
2023/09/15 06:07:52;;;;;;;10.23;7.68;;;;;;;6.93;100.00;98981.13;6107380;19;20452;-73
2023/09/15 06:09:52;;;;;;;13.85;9.23;;;;;;;6.99;100.00;98979.75;6107480;19;20006;-73
2023/09/15 06:11:53;;;;;;;14.57;8.15;;;;;;;7.07;100.00;98982.75;6107228;19;20006;-73
2023/09/15 06:13:53;;;;;;;15.95;7.72;;;;;;;7.13;100.00;98987.69;6107227;19;20104;-73
2023/09/15 06:15:53;;;;;;;14.00;7.80;;;;;;;7.20;100.00;98979.69;6106715;19;20006;-73
2023/09/15 06:17:54;;;;;;;13.90;8.60;;;;;;;7.28;100.00;98987.03;6105246;19;20443;-73
2023/09/15 06:19:54;;;;;;;17.05;8.18;;;;;;;7.35;100.00;98986.44;6107767;19;20033;-73
2023/09/15 06:21:55;;;;;;;12.65;8.15;;;;;;;7.41;100.00;98987.00;6107770;19;20052;-73
2023/09/15 06:23:55;;;;;;;16.45;9.60;;;;;;;7.49;100.00;98991.59;6106116;19;20405;-73
2023/09/15 06:25:55;;;;;;;12.23;8.45;;;;;;;7.55;100.00;98988.28;6107420;19;20014;-73
2023/09/15 06:27:57;;;;;;;11.05;8.07;;;;;;;7.61;100.00;98997.09;6104929;19;20006;-73
2023/09/15 06:29:58;;;;;;;13.10;8.55;;;;;;;7.67;100.00;98995.72;6106393;19;20003;-73
2023/09/15 06:31:58;;;;;;;14.88;8.77;;;;;;;7.76;100.00;98995.59;6107504;19;20015;-73
2023/09/15 06:33:59;;;;;;;11.18;8.35;;;;;;;7.83;100.00;98991.09;6105534;19;20082;-73
2023/09/15 06:36:00;;;;;;;18.77;10.90;;;;;;;7.91;100.00;98989.34;6107996;19;20002;-73
2023/09/15 06:38:02;;;;;;;18.83;9.82;;;;;;;7.98;100.00;98984.06;6106070;19;19999;-73
2023/09/15 06:40:03;;;;;;;18.52;10.48;;;;;;;8.08;100.00;98985.53;6105069;19;20336;-73
2023/09/15 06:42:08;;;;;;;20.33;10.52;;;;;;;8.18;100.00;98982.28;6107418;19;20038;-73
2023/09/15 06:44:10;;;;;;;17.70;12.00;;;;;;;8.23;100.00;98984.00;6106273;19;20076;-73
2023/09/15 06:46:10;;;;;;;16.15;9.77;;;;;;;8.29;100.00;98986.16;6104745;19;20014;-73
2023/09/15 06:48:11;;;;;;;19.88;12.77;;;;;;;8.37;100.00;98982.47;6105244;19;20640;-73
2023/09/15 06:50:11;;;;;;;22.13;13.70;;;;;;;8.44;100.00;98981.88;6108635;19;20007;-73
2023/09/15 06:52:11;;;;;;;16.67;11.52;;;;;;;8.53;100.00;98992.75;6109741;19;20442;-73
2023/09/15 06:54:12;;;;;;;16.38;11.48;;;;;;;8.56;100.00;98990.09;6112695;19;20003;-73
2023/09/15 06:56:13;;;;;;;18.13;11.18;;;;;;;8.64;100.00;98991.09;6111714;19;20002;-73
2023/09/15 06:58:13;;;;;;;15.43;9.57;;;;;;;8.68;100.00;98984.50;6110967;19;20007;-73
2023/09/15 07:00:14;;;;;;;17.27;11.93;;;;;;;8.76;100.00;98981.94;6112025;19;20342;-73
2023/09/15 07:02:14;;;;;;;14.88;10.40;;;;;;;8.85;100.00;98985.31;6111186;19;20007;-73
2023/09/15 07:04:14;;;;;;;17.75;11.00;;;;;;;8.90;100.00;98974.03;6112947;19;20009;-73
2023/09/15 07:06:15;;;;;;;15.50;11.05;;;;;;;8.97;100.00;98980.53;6109124;19;19999;-73
2023/09/15 07:08:15;;;;;;;18.63;11.20;;;;;;;9.05;100.00;98977.97;6111542;19;20035;-73
2023/09/15 07:10:15;;;;;;;16.40;11.13;;;;;;;9.12;100.00;98978.16;6112761;19;20010;-73
2023/09/15 07:12:16;;;;;;;17.83;12.73;;;;;;;9.23;100.00;98985.53;6111208;19;20432;-73
2023/09/15 07:14:17;;;;;;;16.63;11.48;;;;;;;9.32;100.00;98985.34;6113676;19;20018;-73
2023/09/15 07:16:17;;;;;;;16.80;10.98;;;;;;;9.40;100.00;98987.13;6110493;19;20013;-73
2023/09/15 07:18:17;;;;;;;16.42;11.60;;;;;;;9.47;100.00;98979.00;6111179;19;20035;-73
2023/09/15 07:20:18;;;;;;;16.88;10.90;;;;;;;9.54;100.00;98978.38;6111971;19;20007;-73
2023/09/15 07:22:18;;;;;;;14.80;11.55;;;;;;;9.64;100.00;98982.56;6111055;19;20003;-73
2023/09/15 07:24:18;;;;;;;16.67;12.05;;;;;;;9.74;100.00;98982.00;6112125;19;20006;-73
2023/09/15 07:26:19;;;;;;;15.77;11.63;;;;;;;9.84;100.00;98973.13;6111927;19;20257;-73
2023/09/15 07:28:20;;;;;;;18.80;12.05;;;;;;;9.88;100.00;98964.94;6110207;19;20006;-73
2023/09/15 07:30:20;;;;;;;18.48;10.60;;;;;;;9.97;100.00;98968.28;6112290;19;20023;-74
2023/09/15 07:32:21;;;;;;;18.20;10.43;;;;;;;10.05;100.00;98972.81;6111117;19;20466;-73
2023/09/15 07:34:22;;;;;;;19.15;11.73;;;;;;;10.13;100.00;98980.88;6111570;19;20033;-73
2023/09/15 07:36:23;;;;;;;15.30;11.07;;;;;;;10.19;100.00;98975.09;6111397;19;19994;-73
2023/09/15 07:38:23;;;;;;;16.70;10.75;;;;;;;10.32;100.00;98976.56;6111326;19;20015;-73
2023/09/15 07:40:24;;;;;;;18.52;11.05;;;;;;;10.41;100.00;98977.13;6111299;19;20090;-73
2023/09/15 07:42:24;;;;;;;13.45;10.25;;;;;;;10.53;100.00;98967.91;6112881;19;20015;-73
2023/09/15 07:44:24;;;;;;;14.32;10.38;;;;;;;10.58;100.00;98965.59;6112356;19;20003;-73
2023/09/15 07:46:25;;;;;;;15.45;10.85;;;;;;;10.68;100.00;98972.53;6110541;19;20016;-74
2023/09/15 07:48:27;;;;;;;14.25;10.05;;;;;;;10.74;100.00;98973.81;6110784;19;20010;-73
2023/09/15 07:50:28;;;;;;;15.73;9.57;;;;;;;10.83;100.00;98968.03;6111454;19;20079;-73
2023/09/15 07:52:29;;;;;;;13.93;10.20;;;;;;;10.89;100.00;98970.16;6111807;19;20972;-73
2023/09/15 07:54:29;;;;;;;16.33;10.25;;;;;;;10.98;100.00;98979.00;6110612;19;20115;-74
2023/09/15 07:56:30;;;;;;;13.75;9.55;;;;;;;11.05;100.00;98972.00;6110424;19;20030;-74
2023/09/15 07:58:30;;;;;;;14.40;9.70;;;;;;;11.15;100.00;98974.16;6110654;19;20392;-73
2023/09/15 08:00:30;;;;;;;14.05;10.18;;;;;;;11.25;100.00;98967.97;6111052;19;20021;-73
2023/09/15 08:02:31;;;;;;;11.98;8.88;;;;;;;11.34;100.00;98970.53;6108268;19;20014;-74
2023/09/15 08:04:32;;;;;;;11.85;9.40;;;;;;;11.42;100.00;98967.50;6109095;19;20073;-74
2023/09/15 08:06:32;;;;;;;14.02;10.57;;;;;;;11.47;100.00;98955.28;6108994;19;20006;-74
2023/09/15 08:08:33;;;;;;;12.73;9.18;;;;;;;11.55;100.00;98957.00;6110803;19;20014;-74
2023/09/15 08:10:34;;;;;;;13.75;8.90;;;;;;;11.62;100.00;98953.53;6110278;19;20034;-73
2023/09/15 08:12:34;;;;;;;13.30;9.57;;;;;;;11.72;100.00;98967.53;6111462;19;20011;-74
2023/09/15 08:14:34;;;;;;;12.00;8.52;;;;;;;11.76;100.00;98971.19;6110588;19;20472;-74
2023/09/15 08:16:35;;;;;;;11.95;8.60;;;;;;;11.87;100.00;98968.56;6109558;19;20013;-74
2023/09/15 08:18:35;;;;;;;11.65;9.00;;;;;;;12.04;100.00;98968.03;6109029;19;20010;-74
2023/09/15 08:20:35;;;;;;;11.27;8.32;;;;;;;12.10;100.00;98974.06;6110486;19;20418;-74
2023/09/15 08:22:38;;;;;;;15.50;9.38;;;;;;;12.15;100.00;98964.59;6110386;19;20573;-74
2023/09/15 08:24:38;;;;;;;12.15;8.85;;;;;;;12.19;100.00;98960.69;6110684;19;20078;-74
2023/09/15 08:26:38;;;;;;;15.40;10.23;;;;;;;12.29;100.00;98962.78;6109866;19;20006;-74
2023/09/15 08:28:39;;;;;;;11.30;9.45;;;;;;;12.39;100.00;98966.88;6108149;19;20347;-74
2023/09/15 08:30:39;;;;;;;16.58;10.02;;;;;;;12.43;100.00;98948.31;6110537;19;20366;-74
2023/09/15 08:32:41;;;;;;;14.23;8.98;;;;;;;12.51;100.00;98944.44;6110599;19;20006;-74
2023/09/15 08:34:41;;;;;;;11.07;8.32;;;;;;;12.58;100.00;98941.72;6110519;19;20014;-74
2023/09/15 08:36:42;;;;;;;11.05;8.48;;;;;;;12.64;100.00;98950.50;6109641;19;20010;-74
2023/09/15 08:38:42;;;;;;;10.70;8.05;;;;;;;12.71;100.00;98949.78;6107929;19;20040;-74
2023/09/15 08:40:54;;;;;;;9.93;7.65;;;;;;;12.82;100.00;98951.47;6111186;19;20018;-74
2023/09/15 08:42:54;;;;;;;14.10;8.20;;;;;;;12.95;100.00;98940.91;6111387;19;20053;-74
2023/09/15 08:44:56;;;;;;;9.70;7.35;;;;;;;13.03;100.00;98941.75;6110520;19;20470;-74
2023/09/15 08:46:57;;;;;;;10.88;7.55;;;;;;;13.09;100.00;98943.81;6108459;19;20006;-74
2023/09/15 08:48:58;;;;;;;9.02;7.25;;;;;;;13.16;100.00;98937.53;6108086;19;20002;-74
2023/09/15 08:50:58;;;;;;;12.70;8.05;;;;;;;13.25;100.00;98935.25;6105212;19;20009;-74
2023/09/15 08:53:00;;;;;;;11.50;7.90;;;;;;;13.34;100.00;98941.28;6110021;19;20447;-74
2023/09/15 08:55:02;;;;;;;9.35;7.18;;;;;;;13.39;100.00;98937.31;6109572;19;20467;-74
2023/09/15 08:57:02;;;;;;;10.38;7.28;;;;;;;13.41;100.00;98926.63;6109236;19;20040;-74
2023/09/15 08:59:03;;;;;;;9.95;7.55;;;;;;;13.48;100.00;98933.03;6109816;19;20010;-74
2023/09/15 09:01:07;;;;;;;9.18;6.80;;;;;;;13.63;100.00;98933.91;6107983;19;20002;-74
2023/09/15 09:03:12;;;;;;;9.50;6.93;;;;;;;13.80;100.00;98937.19;6108352;19;20007;-74
2023/09/15 09:05:12;;;;;;;8.45;6.80;;;;;;;13.88;100.00;98931.28;6108959;19;20003;-74
2023/09/15 09:07:13;;;;;;;9.18;7.40;;;;;;;13.94;100.00;98921.41;6108878;19;20002;-74
2023/09/15 09:09:14;;;;;;;10.50;7.07;;;;;;;13.96;100.00;98924.56;6108224;19;20011;-74
2023/09/15 09:11:14;;;;;;;7.97;6.75;;;;;;;13.99;100.00;98934.16;6107051;19;20474;-74
2023/09/15 09:13:15;;;;;;;9.63;6.78;;;;;;;14.04;100.00;98937.34;6109116;19;20010;-74
2023/09/15 09:15:16;;;;;;;8.05;6.10;;;;;;;14.09;100.00;98932.59;6111267;19;20454;-74
2023/09/15 09:17:18;;;;;;;9.70;6.03;;;;;;;14.17;100.00;98931.44;6107687;19;20008;-74
2023/09/15 09:19:19;;;;;;;8.57;6.75;;;;;;;14.27;100.00;98919.56;6108970;19;20461;-74
2023/09/15 09:21:23;;;;;;;10.95;7.35;;;;;;;14.35;100.00;98921.16;6109209;19;20090;-74
2023/09/15 09:23:24;;;;;;;9.38;6.82;;;;;;;14.46;100.00;98916.44;6109603;19;20775;-74
2023/09/15 09:25:29;;;;;;;8.55;6.90;;;;;;;14.51;100.00;98904.94;6108864;19;20102;-74